METAR Analyzer

一覧表示

Hello, Guest. (Login)

RJGG/NGO  -  名古屋/中部

観測日時
2021-11-28 21:00 (UTC) (18分前)
気温
5
露点
2
湿数
3
相対湿度
80.9%
QNH
1030hPa
推定現地気圧
1029.5hPa
推定海面気圧
1030.0hPa
体感温度
-5.9
(無風時)
8.5
HI
3.7
気温前日比
-4
体感温度前日比
-3
HI前日比
-3.7
水平視程
>10000m
鉛直視程
データなし
雲底高度
No dense clouds
V/I
VMC (VFR)
RVR
No RVR data
卓越風
7kt from 10°
ガスト
No gust
降水
報告なし
その他の天気
報告なし
少しの雲 @ 3000ft AGL / 散在する雲 @ 不明な高さ

RJGG 282100Z 01007KT 9999 FEW030 SCT/// 05/02 Q1030 NOSIG

RJNA/NKM  -  名古屋/小牧

観測日時
2021-11-28 20:00 (UTC) (78分前)
気温
3
露点
-1
湿数
4
相対湿度
74.9%
QNH
1031.2hPa
推定現地気圧
1029.5hPa
推定海面気圧
1031.3hPa
体感温度
-3.4
(無風時)
7
HI
1.3
気温前日比
+1
体感温度前日比
+4.8
HI前日比
+0.8
水平視程
>10000m
鉛直視程
データなし
雲底高度
No dense clouds
V/I
VMC (VFR)
RVR
No RVR data
卓越風
3kt from 340°
ガスト
No gust
降水
報告なし
その他の天気
報告なし
少しの(1/8) 積雲 @ 3000ft AGL

RJNA 282000Z 34003KT 9999 FEW030 03/M01 Q1031 RMK 1CU030 A3045

RJNS/FSZ  -  静岡